Time;durP1;ratioP1;P1;durP2;ratioP2;P2;SDS_P1;SDS_P2;PMS_P1;PMS_P2;Temp;Humidity;BMP_temperature;BMP_pressure;BME280_temperature;BME280_humidity;BME280_pressure;Samples;Min_cycle;Max_cycle;Signal;HPM_P1;HPM_P2
2022/08/26 00:01:56;;;;;;;37.20;17.50;;;;;;;40.94;33.46;101263.03;5051777;28;20426;-74
2022/08/26 00:04:24;;;;;;;29.27;12.30;;;;;;;41.12;33.32;101253.75;5051827;28;20829;-75
2022/08/26 00:06:50;;;;;;;24.50;13.80;;;;;;;41.16;33.08;101238.41;5051819;28;20454;-74
2022/08/26 00:09:16;;;;;;;34.67;12.20;;;;;;;41.41;32.52;101242.28;5051917;28;20846;-74
2022/08/26 00:11:44;;;;;;;22.10;11.47;;;;;;;41.18;33.26;101236.16;5051653;28;20962;-74
2022/08/26 00:14:10;;;;;;;26.73;12.77;;;;;;;41.11;33.06;101238.56;5051677;28;20466;-74
2022/08/26 00:16:36;;;;;;;21.23;12.90;;;;;;;41.16;32.99;101227.53;5051767;28;20496;-74
2022/08/26 00:19:03;;;;;;;29.40;12.60;;;;;;;40.81;33.90;101238.31;5052878;28;20447;-75
2022/08/26 00:21:29;;;;;;;20.67;12.13;;;;;;;40.54;34.27;101231.25;5051675;28;20438;-74
2022/08/26 00:23:55;;;;;;;18.83;10.97;;;;;;;40.90;33.99;101222.06;5051224;28;21033;-75
2022/08/26 00:26:21;;;;;;;25.13;10.80;;;;;;;41.08;33.58;101220.97;5051569;28;20967;-74
2022/08/26 00:28:48;;;;;;;18.70;11.60;;;;;;;40.79;33.80;101218.00;5052752;28;20451;-75
2022/08/26 00:31:15;;;;;;;21.47;11.37;;;;;;;41.10;32.89;101212.47;5051384;28;20811;-74
2022/08/26 00:33:41;;;;;;;22.57;10.00;;;;;;;41.02;33.47;101205.91;5051416;28;20422;-74
2022/08/26 00:36:08;;;;;;;26.23;11.83;;;;;;;41.19;32.99;101212.44;5050835;28;20415;-74
2022/08/26 00:38:37;;;;;;;18.20;10.17;;;;;;;40.82;33.58;101209.22;5051434;28;20418;-74
2022/08/26 00:41:04;;;;;;;20.20;11.07;;;;;;;40.38;34.37;101210.19;5050934;28;20524;-74
2022/08/26 00:43:33;;;;;;;23.60;13.03;;;;;;;40.50;33.96;101199.56;5052863;28;20423;-73
2022/08/26 00:46:32;;;;;;;19.10;12.60;;;;;;;40.45;34.06;101186.06;5051213;28;20482;-73
2022/08/26 00:49:06;;;;;;;24.50;13.07;;;;;;;40.77;33.88;101182.97;5040684;28;20454;-73
2022/08/26 00:51:39;;;;;;;23.90;14.60;;;;;;;40.71;33.79;101173.38;5051013;28;20517;-73
2022/08/26 00:54:08;;;;;;;28.40;12.60;;;;;;;41.03;33.70;101168.63;5051014;28;20461;-74
2022/08/26 00:56:45;;;;;;;29.97;14.33;;;;;;;41.02;33.87;101161.56;5051244;28;20431;-74
2022/08/26 00:59:13;;;;;;;27.70;12.60;;;;;;;41.01;33.27;101157.25;5051087;28;20520;-75
2022/08/26 01:01:41;;;;;;;43.40;13.47;;;;;;;41.15;33.25;101160.59;5050860;28;20423;-73
2022/08/26 01:04:09;;;;;;;23.80;11.90;;;;;;;40.80;33.77;101162.50;5050881;28;20434;-73
2022/08/26 01:06:36;;;;;;;24.00;13.37;;;;;;;40.62;34.36;101152.72;5050853;28;20441;-73
2022/08/26 01:09:03;;;;;;;20.70;11.80;;;;;;;40.53;34.27;101153.50;5051017;28;20430;-73
2022/08/26 01:11:30;;;;;;;37.53;14.03;;;;;;;40.77;33.83;101155.78;5050916;28;20431;-73
2022/08/26 01:14:01;;;;;;;31.60;13.47;;;;;;;40.44;34.57;101146.41;5051031;28;20427;-73
2022/08/26 01:16:28;;;;;;;38.00;12.87;;;;;;;40.07;35.09;101148.53;5050943;28;20434;-72
2022/08/26 01:19:00;;;;;;;18.37;13.30;;;;;;;40.36;34.19;101149.91;5052059;28;20528;-73
2022/08/26 01:22:07;;;;;;;27.80;13.93;;;;;;;40.82;33.77;101141.19;5052410;28;20843;-74
2022/08/26 01:24:34;;;;;;;19.33;11.30;;;;;;;41.01;33.31;101136.28;4955171;28;20466;-74
2022/08/26 01:27:06;;;;;;;25.80;13.23;;;;;;;41.24;32.41;101146.97;5032280;28;20419;-73
2022/08/26 01:29:35;;;;;;;28.83;13.23;;;;;;;40.82;33.70;101141.19;5052295;28;20952;-74
2022/08/26 01:32:02;;;;;;;28.37;16.40;;;;;;;40.99;32.94;101140.44;5042364;28;20838;-73
2022/08/26 01:34:34;;;;;;;28.57;12.10;;;;;;;41.04;33.19;101137.56;5048018;28;20498;-72
2022/08/26 01:37:10;;;;;;;26.93;12.90;;;;;;;41.10;33.33;101133.53;5050753;28;20457;-73
2022/08/26 01:39:37;;;;;;;27.43;12.07;;;;;;;41.22;33.18;101133.69;5050403;28;20848;-73
2022/08/26 01:42:06;;;;;;;21.73;12.30;;;;;;;41.25;32.57;101138.50;5050744;28;20426;-73
2022/08/26 01:44:38;;;;;;;40.07;18.17;;;;;;;41.14;32.79;101139.97;5050513;28;20470;-74
2022/08/26 01:47:06;;;;;;;39.13;18.27;;;;;;;40.79;33.72;101133.69;5052020;28;20484;-73
2022/08/26 01:49:36;;;;;;;37.93;15.27;;;;;;;41.01;33.11;101143.66;5054515;28;20447;-74
2022/08/26 01:52:04;;;;;;;22.67;11.70;;;;;;;41.14;32.86;101142.69;5041060;28;20543;-75
2022/08/26 01:54:31;;;;;;;20.97;11.87;;;;;;;40.96;33.17;101136.44;5054227;28;20423;-74
2022/08/26 01:56:58;;;;;;;22.03;13.83;;;;;;;41.18;32.80;101138.16;5053701;28;20423;-71
2022/08/26 01:59:25;;;;;;;27.83;13.37;;;;;;;41.36;32.83;101133.53;5055229;28;20992;-74
2022/08/26 02:01:52;;;;;;;18.90;12.07;;;;;;;40.93;33.69;101136.28;5054114;28;20837;-74
2022/08/26 02:04:34;;;;;;;25.47;12.37;;;;;;;40.81;33.45;101126.00;5044624;28;20806;-74
2022/08/26 02:07:04;;;;;;;19.00;10.20;;;;;;;40.74;33.47;101136.56;5051885;28;20418;-74
2022/08/26 02:09:31;;;;;;;16.33;11.43;;;;;;;40.85;33.58;101140.56;5054191;28;20454;-74
2022/08/26 02:12:00;;;;;;;37.47;14.37;;;;;;;40.68;33.25;101144.06;5054254;28;20846;-73
2022/08/26 02:14:31;;;;;;;25.87;11.77;;;;;;;40.92;33.86;101134.69;5054128;28;20427;-74
2022/08/26 02:16:58;;;;;;;22.90;12.30;;;;;;;40.63;33.89;101143.44;5053761;28;20437;-73
2022/08/26 02:19:31;;;;;;;23.97;12.47;;;;;;;40.69;33.38;101137.50;5054036;28;20510;-73
2022/08/26 02:22:03;;;;;;;21.63;13.10;;;;;;;41.27;32.34;101130.00;5053775;28;20925;-73
2022/08/26 02:24:54;;;;;;;26.73;12.27;;;;;;;41.25;32.30;101130.34;5053796;28;20470;-73
2022/08/26 02:27:24;;;;;;;27.40;12.17;;;;;;;41.44;31.80;101131.94;5053711;28;20414;-74
2022/08/26 02:30:30;;;;;;;21.03;11.97;;;;;;;41.48;31.58;101125.50;5053695;28;20505;-72
2022/08/26 02:33:04;;;;;;;22.23;11.17;;;;;;;41.07;32.59;101131.47;5010111;28;20568;-73
2022/08/26 02:35:32;;;;;;;23.30;11.40;;;;;;;40.91;32.40;101133.09;5053751;28;20433;-73
2022/08/26 02:37:58;;;;;;;24.70;14.77;;;;;;;41.11;32.33;101126.97;5053344;28;20434;-74
2022/08/26 02:40:29;;;;;;;27.23;12.27;;;;;;;41.40;31.73;101129.03;5053340;28;20474;-73
2022/08/26 02:42:56;;;;;;;26.30;12.50;;;;;;;40.99;32.48;101124.91;5053295;28;20450;-73
2022/08/26 02:45:22;;;;;;;22.60;12.30;;;;;;;40.98;32.30;101125.22;5053386;28;20446;-73
2022/08/26 02:47:49;;;;;;;27.03;12.57;;;;;;;40.87;32.25;101126.66;5053355;28;20480;-73
2022/08/26 02:50:15;;;;;;;20.13;11.80;;;;;;;41.36;31.98;101116.41;5053284;28;20443;-74
2022/08/26 02:52:41;;;;;;;23.13;11.13;;;;;;;41.25;31.93;101116.72;5053236;28;21012;-74
2022/08/26 02:55:08;;;;;;;20.37;10.07;;;;;;;41.29;32.10;101123.09;5053195;28;20948;-75
2022/08/26 02:57:34;;;;;;;17.77;10.10;;;;;;;41.33;32.10;101129.53;5052866;28;20522;-74
2022/08/26 03:00:01;;;;;;;24.50;11.57;;;;;;;41.36;32.08;101116.41;5054504;28;20448;-74
2022/08/26 03:02:27;;;;;;;27.30;13.40;;;;;;;41.39;32.19;101110.31;5053158;28;20964;-75
2022/08/26 03:04:53;;;;;;;25.77;12.63;;;;;;;41.14;32.29;101114.66;5052885;28;20489;-75
2022/08/26 03:07:19;;;;;;;33.43;14.10;;;;;;;40.83;32.79;101110.19;5052966;28;20784;-74
2022/08/26 03:09:46;;;;;;;20.20;11.80;;;;;;;40.47;33.60;101107.72;5052982;28;20458;-74
2022/08/26 03:12:12;;;;;;;20.47;12.60;;;;;;;40.68;33.31;101105.19;5052746;28;20510;-74
2022/08/26 03:14:38;;;;;;;19.63;12.80;;;;;;;40.76;33.32;101110.66;5053268;28;20500;-74
2022/08/26 03:17:04;;;;;;;27.30;13.80;;;;;;;40.84;32.87;101108.25;5052982;28;20829;-74
2022/08/26 03:19:31;;;;;;;30.47;11.63;;;;;;;40.50;33.75;101115.25;5052903;28;20463;-74
2022/08/26 03:21:57;;;;;;;25.83;12.30;;;;;;;40.36;33.87;101114.59;5053980;28;20929;-74
2022/08/26 03:24:24;;;;;;;33.13;14.30;;;;;;;40.72;33.48;101109.69;5052643;28;20469;-75
2022/08/26 03:26:50;;;;;;;26.47;14.90;;;;;;;40.66;33.87;101116.41;5052737;28;20430;-74
2022/08/26 03:32:02;;;;;;;27.23;14.07;;;;;;;40.62;33.54;101110.00;5053117;28;20510;-75
2022/08/26 03:34:29;;;;;;;34.60;13.67;;;;;;;40.23;34.41;101111.69;5052484;28;20434;-75
2022/08/26 03:36:55;;;;;;;26.77;15.33;;;;;;;40.90;32.98;101112.41;5052509;28;20438;-74
2022/08/26 03:39:21;;;;;;;24.70;12.17;;;;;;;40.38;34.09;101113.13;5053428;28;20482;-74
2022/08/26 03:41:47;;;;;;;18.97;12.07;;;;;;;40.68;33.38;101110.66;5046245;28;20434;-74
2022/08/26 03:44:13;;;;;;;24.67;13.43;;;;;;;40.54;34.28;101108.88;5044293;28;20537;-74
2022/08/26 03:46:39;;;;;;;31.10;13.50;;;;;;;40.28;34.35;101116.19;5052240;28;20622;-74
2022/08/26 03:49:06;;;;;;;29.77;11.93;;;;;;;40.11;33.92;101114.22;5052298;28;20818;-74
2022/08/26 03:51:34;;;;;;;22.27;11.47;;;;;;;39.97;34.25;101095.28;5052050;28;20450;-74
2022/08/26 03:54:01;;;;;;;23.90;13.20;;;;;;;40.14;34.44;101108.13;5053721;28;20480;-74
2022/08/26 03:56:29;;;;;;;23.97;12.27;;;;;;;40.17;34.60;101110.22;5053322;28;20414;-74
2022/08/26 03:58:55;;;;;;;26.77;11.90;;;;;;;39.99;34.77;101116.69;5052177;28;20510;-74
2022/08/26 04:01:22;;;;;;;25.57;12.20;;;;;;;39.88;34.39;101118.09;5053546;28;20442;-73
2022/08/26 04:03:57;;;;;;;26.33;11.60;;;;;;;40.06;34.13;101127.13;5051890;28;20419;-73
2022/08/26 04:06:33;;;;;;;31.30;14.97;;;;;;;40.17;34.28;101120.28;5052244;28;20457;-73
2022/08/26 04:09:04;;;;;;;26.67;14.80;;;;;;;40.21;33.96;101135.66;5029201;28;20430;-73
2022/08/26 04:11:31;;;;;;;25.33;10.97;;;;;;;40.66;33.63;101132.72;5044778;28;20443;-73
2022/08/26 04:14:04;;;;;;;23.93;10.63;;;;;;;41.01;32.72;101130.06;5051572;28;20446;-73
2022/08/26 04:16:32;;;;;;;29.57;13.53;;;;;;;40.53;33.30;101126.31;5051796;28;20870;-73
2022/08/26 04:18:58;;;;;;;23.73;12.17;;;;;;;41.39;32.47;101124.72;5052928;28;20844;-73
2022/08/26 04:21:25;;;;;;;23.80;10.87;;;;;;;41.29;32.11;101120.38;5051692;28;20443;-74
2022/08/26 04:23:52;;;;;;;16.90;9.73;;;;;;;41.02;32.70;101124.28;5034997;28;20492;-74
2022/08/26 04:26:20;;;;;;;29.77;13.73;;;;;;;41.21;32.73;101114.97;5051438;28;20466;-74
2022/08/26 04:28:48;;;;;;;21.17;13.43;;;;;;;41.13;32.79;101102.16;5051443;28;20504;-73
2022/08/26 04:31:16;;;;;;;26.67;16.03;;;;;;;41.15;33.11;101108.91;5051388;28;20497;-72
2022/08/26 04:33:48;;;;;;;23.37;13.53;;;;;;;41.17;33.05;101103.91;5051514;28;20422;-74
2022/08/26 04:36:14;;;;;;;31.93;13.93;;;;;;;41.57;32.36;101109.94;5052616;28;20415;-74
2022/08/26 04:38:40;;;;;;;30.37;13.57;;;;;;;41.56;32.04;101105.63;5051350;28;20427;-74
2022/08/26 04:41:10;;;;;;;27.40;14.37;;;;;;;41.33;32.39;101109.69;5051066;28;20470;-74
2022/08/26 04:43:36;;;;;;;31.00;14.53;;;;;;;41.27;32.91;101113.69;5051306;28;20448;-74
2022/08/26 04:46:05;;;;;;;34.03;14.23;;;;;;;40.87;32.70;101110.31;5051251;28;20988;-74
2022/08/26 04:48:32;;;;;;;21.03;11.10;;;;;;;41.21;32.13;101110.31;5050886;28;20585;-74
2022/08/26 04:50:59;;;;;;;32.40;11.80;;;;;;;40.86;33.26;101114.16;5051238;28;20509;-73
2022/08/26 04:53:26;;;;;;;29.40;14.70;;;;;;;41.46;32.23;101110.63;5050766;28;20818;-73
2022/08/26 04:55:53;;;;;;;27.30;10.30;;;;;;;41.17;32.83;101109.34;5051200;28;20430;-74
2022/08/26 04:58:21;;;;;;;24.80;11.70;;;;;;;41.02;32.88;101115.31;5050813;28;20941;-74
2022/08/26 05:00:49;;;;;;;25.50;13.47;;;;;;;41.77;32.07;101124.00;5052485;28;20417;-73
2022/08/26 05:03:19;;;;;;;27.87;12.27;;;;;;;41.86;31.55;101130.19;5050780;28;20458;-74
2022/08/26 05:05:46;;;;;;;21.63;10.83;;;;;;;41.93;31.70;101124.22;5050837;28;20462;-74
2022/08/26 05:08:14;;;;;;;26.20;16.60;;;;;;;41.46;32.20;101135.91;5050918;28;20454;-74
2022/08/26 05:10:42;;;;;;;22.47;11.13;;;;;;;41.86;31.72;101141.88;5050849;28;20446;-73
2022/08/26 05:13:08;;;;;;;25.13;13.17;;;;;;;41.95;31.39;101144.59;5051054;28;20434;-73
2022/08/26 05:15:35;;;;;;;23.47;13.43;;;;;;;41.56;32.04;101149.19;5034245;28;20415;-73
2022/08/26 05:18:04;;;;;;;26.70;12.90;;;;;;;41.58;32.30;101155.09;5050922;28;20419;-73
2022/08/26 05:20:31;;;;;;;32.27;14.90;;;;;;;42.02;31.65;101155.78;5051175;28;20829;-73
2022/08/26 05:23:00;;;;;;;24.30;12.90;;;;;;;42.11;31.31;101158.44;5056334;28;20418;-74
2022/08/26 05:25:29;;;;;;;24.10;13.53;;;;;;;41.69;31.61;101155.56;5054883;28;20454;-74
2022/08/26 05:27:56;;;;;;;22.23;12.70;;;;;;;40.99;32.26;101151.31;5056421;28;20465;-73
2022/08/26 05:30:23;;;;;;;20.80;12.10;;;;;;;41.12;31.98;101149.53;5054742;28;20430;-74
2022/08/26 05:32:49;;;;;;;31.60;13.30;;;;;;;41.12;32.05;101161.22;5054765;28;20877;-74
2022/08/26 05:35:16;;;;;;;34.93;13.53;;;;;;;41.67;31.11;101165.97;5054585;28;20406;-72
2022/08/26 05:37:42;;;;;;;37.77;13.40;;;;;;;41.62;32.09;101163.44;5054550;28;20461;-73
2022/08/26 05:40:09;;;;;;;24.63;11.80;;;;;;;41.37;32.26;101164.28;5049689;28;20459;-73
2022/08/26 05:42:35;;;;;;;29.50;11.83;;;;;;;41.48;31.93;101173.72;5047116;28;20496;-73
2022/08/26 05:45:01;;;;;;;21.37;14.10;;;;;;;41.36;31.75;101170.84;5054339;28;20458;-73
2022/08/26 05:47:27;;;;;;;29.10;14.70;;;;;;;41.62;31.59;101185.22;5043610;28;20430;-72
2022/08/26 05:49:54;;;;;;;28.13;14.80;;;;;;;41.64;31.48;101187.63;5052735;28;20547;-73
2022/08/26 05:52:20;;;;;;;27.73;12.33;;;;;;;41.45;32.00;101186.06;5055829;28;20449;-73
2022/08/26 05:54:46;;;;;;;19.40;11.40;;;;;;;40.72;32.52;101187.78;5054193;28;20426;-73
2022/08/26 05:57:13;;;;;;;22.27;12.63;;;;;;;41.33;31.80;101192.16;5054467;28;20452;-73
2022/08/26 05:59:39;;;;;;;21.23;10.50;;;;;;;41.48;31.59;101190.84;5054236;28;20438;-73
2022/08/26 06:02:06;;;;;;;36.53;12.90;;;;;;;41.73;31.63;101186.44;5054146;28;20425;-73
2022/08/26 06:04:32;;;;;;;19.73;11.07;;;;;;;41.80;31.49;101181.31;5055354;28;20808;-74
2022/08/26 06:06:58;;;;;;;18.70;10.27;;;;;;;41.76;31.66;101191.28;5054033;28;20418;-73
2022/08/26 06:09:25;;;;;;;37.10;12.90;;;;;;;41.97;31.29;101185.13;5054268;28;20445;-87
2022/08/26 06:11:51;;;;;;;28.70;11.90;;;;;;;41.80;31.67;101188.72;5051004;28;20434;-75
2022/08/26 06:14:18;;;;;;;21.20;11.67;;;;;;;41.50;31.56;101185.09;5050809;28;20626;-75
2022/08/26 06:16:44;;;;;;;30.63;13.37;;;;;;;41.13;32.49;101189.25;5035122;28;20431;-75
2022/08/26 06:19:14;;;;;;;32.17;12.57;;;;;;;41.28;32.28;101192.28;5052440;28;20933;-74
2022/08/26 06:21:44;;;;;;;23.70;10.03;;;;;;;41.02;32.41;101194.22;5035601;28;20431;-74
2022/08/26 06:27:03;;;;;;;37.07;13.37;;;;;;;41.33;32.43;101199.53;5053851;28;21018;-75
2022/08/26 06:29:33;;;;;;;22.73;12.47;;;;;;;40.80;32.82;101190.50;5049184;28;20429;-76
2022/08/26 06:32:01;;;;;;;22.40;12.23;;;;;;;41.11;32.11;101183.34;5053539;28;20417;-74
2022/08/26 06:34:28;;;;;;;27.63;12.33;;;;;;;41.25;32.40;101184.78;5053189;28;20419;-75
2022/08/26 06:37:01;;;;;;;31.70;14.27;;;;;;;41.17;32.52;101180.13;5046641;28;20489;-75
2022/08/26 06:39:27;;;;;;;31.37;12.17;;;;;;;41.12;32.89;101180.28;5048974;28;20426;-75
2022/08/26 06:41:54;;;;;;;28.67;12.33;;;;;;;40.80;32.77;101187.78;5052871;28;20818;-73
2022/08/26 06:44:20;;;;;;;25.50;14.93;;;;;;;40.92;33.13;101180.94;5023700;28;20455;-75
2022/08/26 06:46:47;;;;;;;30.13;11.63;;;;;;;40.81;32.91;101196.72;5052248;28;20556;-74
2022/08/26 06:49:13;;;;;;;31.47;14.17;;;;;;;41.01;32.77;101188.00;5031383;28;20448;-75
2022/08/26 06:51:41;;;;;;;31.47;14.20;;;;;;;41.16;32.84;101199.50;5032423;28;20474;-74
2022/08/26 06:54:08;;;;;;;17.10;10.67;;;;;;;41.40;32.26;101207.22;5033994;28;20427;-73
2022/08/26 06:56:37;;;;;;;28.43;12.40;;;;;;;41.62;32.50;101212.47;5051926;28;20416;-74
2022/08/26 06:59:05;;;;;;;22.40;12.73;;;;;;;41.74;32.20;101199.00;5045152;28;20800;-75
2022/08/26 07:01:34;;;;;;;23.93;12.17;;;;;;;41.86;31.98;101201.81;5050071;28;20438;-74
2022/08/26 07:04:03;;;;;;;25.17;13.13;;;;;;;42.09;31.74;101209.75;5047461;28;20511;-74
2022/08/26 07:06:30;;;;;;;25.23;13.37;;;;;;;41.98;31.65;101208.53;5048440;28;21169;-74
2022/08/26 07:09:03;;;;;;;21.87;11.53;;;;;;;41.63;32.29;101205.88;5034767;28;20873;-74
2022/08/26 07:11:33;;;;;;;35.53;11.97;;;;;;;41.49;32.34;101207.97;5051697;28;20426;-74
2022/08/26 07:14:00;;;;;;;38.53;14.20;;;;;;;41.53;32.55;101211.66;5051326;28;21039;-73
2022/08/26 07:16:30;;;;;;;24.90;13.80;;;;;;;41.63;32.16;101224.16;5051165;28;20431;-74
2022/08/26 07:18:57;;;;;;;24.70;13.03;;;;;;;40.71;33.77;101235.94;5051293;28;20426;-73
2022/08/26 07:21:26;;;;;;;16.60;9.90;;;;;;;41.16;33.28;101227.53;5051402;28;20441;-74
2022/08/26 07:24:01;;;;;;;21.70;11.80;;;;;;;41.24;33.22;101234.06;5051053;28;20441;-74
2022/08/26 07:26:34;;;;;;;33.50;16.53;;;;;;;41.41;33.14;101234.09;5050962;28;20458;-74
2022/08/26 07:29:04;;;;;;;18.03;12.87;;;;;;;41.52;32.33;101245.47;5051153;28;20492;-73
2022/08/26 07:31:40;;;;;;;30.37;13.07;;;;;;;41.50;32.60;101245.00;5050653;28;20423;-73
2022/08/26 07:34:08;;;;;;;17.57;11.00;;;;;;;41.69;32.54;101248.19;5033659;28;20429;-73
2022/08/26 07:36:36;;;;;;;27.23;12.40;;;;;;;41.50;33.03;101237.63;5033820;28;20503;-73
2022/08/26 07:39:02;;;;;;;39.90;16.93;;;;;;;41.85;32.70;101254.72;5031537;28;20528;-74
2022/08/26 07:41:31;;;;;;;28.30;13.17;;;;;;;41.70;32.79;101254.41;5031340;28;20479;-73
2022/08/26 07:44:00;;;;;;;22.93;12.83;;;;;;;41.38;32.92;101259.25;5030313;28;20427;-74
2022/08/26 07:46:29;;;;;;;24.67;12.17;;;;;;;40.99;33.44;101266.41;5031552;28;20510;-73
2022/08/26 07:48:55;;;;;;;21.60;9.77;;;;;;;41.36;32.79;101257.97;5041426;28;20520;-73
2022/08/26 07:51:22;;;;;;;30.60;13.60;;;;;;;41.39;32.39;101269.03;5051491;28;20433;-76
2022/08/26 07:53:49;;;;;;;23.67;12.17;;;;;;;40.95;33.37;101275.53;5051276;28;20426;-72
2022/08/26 07:56:15;;;;;;;24.33;11.80;;;;;;;41.08;33.44;101269.94;5051515;28;20423;-74
2022/08/26 07:58:41;;;;;;;24.90;13.43;;;;;;;41.53;32.58;101263.41;5051087;28;20513;-72
2022/08/26 08:01:07;;;;;;;25.60;14.40;;;;;;;41.56;32.08;101260.06;5052964;28;20407;-74
2022/08/26 08:03:34;;;;;;;34.67;15.87;;;;;;;41.23;32.76;101254.25;5050508;28;20462;-72
2022/08/26 08:06:00;;;;;;;26.60;13.50;;;;;;;41.68;32.58;101262.91;5051090;28;20542;-72
2022/08/26 08:08:26;;;;;;;29.80;11.87;;;;;;;41.30;32.90;101262.75;5038851;28;20443;-77
2022/08/26 08:10:52;;;;;;;26.63;12.27;;;;;;;41.39;32.76;101262.78;5047991;28;20526;-72
2022/08/26 08:13:18;;;;;;;29.00;11.40;;;;;;;41.31;33.16;101256.16;5038791;28;20432;-72
2022/08/26 08:15:44;;;;;;;24.57;11.53;;;;;;;41.01;33.15;101269.63;5045340;28;20426;-70
2022/08/26 08:18:10;;;;;;;27.10;12.40;;;;;;;41.03;33.01;101261.13;5047060;28;20428;-70
2022/08/26 08:20:37;;;;;;;22.90;12.77;;;;;;;41.38;33.02;101262.00;5034672;28;20422;-69
2022/08/26 08:23:03;;;;;;;32.73;16.47;;;;;;;41.56;32.96;101273.66;5052064;28;20863;-72
2022/08/26 08:25:30;;;;;;;45.03;24.90;;;;;;;41.49;32.93;101274.13;5050965;28;20459;-71
2022/08/26 08:27:56;;;;;;;20.40;14.50;;;;;;;41.97;31.99;101289.47;5047458;28;20498;-72
2022/08/26 08:30:23;;;;;;;51.70;12.60;;;;;;;41.88;32.42;101290.63;5046824;28;20925;-72
2022/08/26 08:32:51;;;;;;;25.40;10.27;;;;;;;41.79;32.38;101294.16;5048490;28;20844;-70
2022/08/26 08:35:21;;;;;;;29.63;11.73;;;;;;;42.12;32.02;101290.91;5035478;28;20514;-71
2022/08/26 08:37:53;;;;;;;28.03;12.13;;;;;;;42.30;31.69;101287.00;5034433;28;20431;-72
2022/08/26 08:40:21;;;;;;;42.40;14.87;;;;;;;42.56;31.20;101297.00;5047180;28;20855;-71
2022/08/26 08:42:53;;;;;;;30.37;12.50;;;;;;;41.88;32.01;101298.81;5033475;28;20459;-72
2022/08/26 08:45:36;;;;;;;17.97;12.40;;;;;;;42.15;31.68;101301.13;5051113;28;20484;-71
2022/08/26 08:48:11;;;;;;;32.77;12.77;;;;;;;42.09;32.00;101310.63;5050660;28;20418;-72
2022/08/26 08:50:45;;;;;;;33.80;14.53;;;;;;;42.35;31.78;101314.06;5039200;28;20816;-72
2022/08/26 08:53:34;;;;;;;27.77;10.93;;;;;;;42.32;31.69;101312.00;5050094;28;20454;-72
2022/08/26 08:56:27;;;;;;;25.30;10.10;;;;;;;42.38;31.39;101318.09;5041522;28;20509;-71
2022/08/26 08:59:09;;;;;;;23.77;10.03;;;;;;;41.98;32.18;101317.53;5048536;28;20839;-74
2022/08/26 09:01:39;;;;;;;27.27;12.67;;;;;;;42.35;31.84;101316.81;5046716;28;20519;-72
2022/08/26 09:08:03;;;;;;;31.10;12.53;;;;;;;42.24;31.69;101315.59;5037024;28;21276;-72
2022/08/26 09:10:39;;;;;;;23.43;11.47;;;;;;;41.91;32.28;101323.47;5049965;28;20831;-72
2022/08/26 09:13:12;;;;;;;21.77;10.93;;;;;;;42.08;32.21;101318.00;5051281;28;20513;-72
2022/08/26 09:15:56;;;;;;;35.33;11.37;;;;;;;42.07;32.21;101331.94;5033543;28;20422;-69
2022/08/26 09:18:38;;;;;;;27.17;11.83;;;;;;;42.32;31.85;101324.84;5050141;28;20426;-72
2022/08/26 09:21:09;;;;;;;24.77;11.07;;;;;;;42.50;31.61;101323.66;5042592;28;20419;-72
2022/08/26 09:23:38;;;;;;;22.33;11.20;;;;;;;42.74;31.32;101323.09;5046110;28;20423;-76
2022/08/26 09:26:41;;;;;;;21.07;12.40;;;;;;;42.85;31.57;101321.59;5030417;28;20467;-71
2022/08/26 09:29:20;;;;;;;22.53;10.03;;;;;;;42.73;31.21;101326.97;5047779;28;20427;-71
2022/08/26 09:31:47;;;;;;;36.73;11.33;;;;;;;42.70;31.85;101324.88;5037655;28;20532;-71
2022/08/26 09:34:17;;;;;;;25.77;10.30;;;;;;;43.03;30.98;101326.97;5046585;28;20424;-72
2022/08/26 09:36:49;;;;;;;19.63;10.40;;;;;;;42.96;30.81;101323.94;5043334;28;21022;-73
2022/08/26 09:39:26;;;;;;;20.50;10.20;;;;;;;42.90;30.91;101329.56;5051962;28;20418;-72
2022/08/26 09:42:21;;;;;;;20.43;11.80;;;;;;;42.93;30.89;101323.47;5045202;28;20426;-72
2022/08/26 09:44:59;;;;;;;30.40;12.40;;;;;;;42.80;31.20;101324.50;5043390;28;20458;-71
2022/08/26 09:47:30;;;;;;;27.40;10.00;;;;;;;42.47;31.30;101318.03;5044804;28;20416;-71
2022/08/26 09:50:23;;;;;;;34.90;11.97;;;;;;;42.67;31.55;101316.56;5033357;28;20508;-73
2022/08/26 09:53:15;;;;;;;25.07;10.63;;;;;;;42.64;31.36;101312.56;5030791;28;20423;-72
2022/08/26 09:55:43;;;;;;;34.20;11.30;;;;;;;42.86;31.11;101312.28;5037945;28;20476;-72
2022/08/26 09:58:31;;;;;;;22.53;11.00;;;;;;;42.65;31.77;101304.03;5049596;28;20446;-72
2022/08/26 10:01:00;;;;;;;24.80;10.33;;;;;;;42.49;32.18;101310.34;5050998;28;20421;-72
2022/08/26 10:03:32;;;;;;;29.90;11.27;;;;;;;42.62;31.52;101307.44;5049608;28;20426;-72
2022/08/26 10:06:03;;;;;;;28.20;11.03;;;;;;;42.82;31.21;101303.16;5049595;28;20454;-74
2022/08/26 10:08:29;;;;;;;50.90;11.93;;;;;;;42.93;31.16;101303.56;5052940;28;20518;-73
2022/08/26 10:10:58;;;;;;;35.90;14.40;;;;;;;42.92;31.34;101297.31;5053187;28;20512;-73
2022/08/26 10:13:33;;;;;;;30.47;12.83;;;;;;;43.02;30.95;101300.78;5053156;28;20808;-73
2022/08/26 10:16:13;;;;;;;23.47;12.63;;;;;;;42.98;31.21;101299.84;5053300;28;20475;-72
2022/08/26 10:19:08;;;;;;;18.17;11.67;;;;;;;42.51;31.41;101297.19;5053093;28;20434;-73
2022/08/26 10:22:06;;;;;;;25.50;12.30;;;;;;;42.88;31.10;101290.09;5054325;28;20430;-72
2022/08/26 10:24:40;;;;;;;23.17;12.30;;;;;;;42.73;31.58;101291.50;5047516;28;20461;-71
2022/08/26 10:27:23;;;;;;;27.23;12.00;;;;;;;42.87;31.37;101300.22;5054499;28;20469;-71
2022/08/26 10:29:54;;;;;;;24.47;11.90;;;;;;;42.58;31.38;101287.38;5054156;28;20521;-72
2022/08/26 10:32:30;;;;;;;27.07;13.20;;;;;;;42.67;31.42;101284.63;5053127;28;20425;-73
2022/08/26 10:34:56;;;;;;;30.77;11.90;;;;;;;42.94;31.20;101302.44;5052780;28;20900;-72
2022/08/26 10:37:32;;;;;;;27.73;12.20;;;;;;;42.97;30.97;101299.06;5053020;28;20450;-72
2022/08/26 10:40:06;;;;;;;21.00;12.10;;;;;;;43.02;30.54;101290.69;5052733;28;20915;-73
2022/08/26 10:42:55;;;;;;;26.60;13.07;;;;;;;43.20;30.60;101283.16;5052670;28;20521;-72
2022/08/26 10:45:31;;;;;;;34.23;11.77;;;;;;;43.27;30.35;101288.88;5032029;28;20466;-72
2022/08/26 10:48:16;;;;;;;27.90;11.97;;;;;;;43.56;30.06;101285.28;5052666;28;21032;-72
2022/08/26 10:50:45;;;;;;;25.53;12.13;;;;;;;43.58;30.18;101285.75;5053861;28;20818;-71
2022/08/26 10:53:53;;;;;;;25.07;11.77;;;;;;;43.47;30.39;101279.13;5050440;28;20423;-72
2022/08/26 10:56:34;;;;;;;20.80;9.60;;;;;;;43.62;29.98;101273.03;5053685;28;20920;-72
2022/08/26 10:59:05;;;;;;;20.47;11.40;;;;;;;43.79;29.97;101274.03;5048276;28;20422;-75
2022/08/26 11:01:43;;;;;;;25.10;10.90;;;;;;;43.65;30.32;101264.16;5050903;28;20431;-75
2022/08/26 11:04:27;;;;;;;18.10;10.37;;;;;;;43.78;29.56;101267.75;5053055;28;20446;-72
2022/08/26 11:07:28;;;;;;;38.67;11.37;;;;;;;43.22;30.50;101252.78;5050413;28;20422;-72
2022/08/26 11:09:55;;;;;;;20.27;12.30;;;;;;;43.36;30.54;101256.06;5046450;28;20510;-73
2022/08/26 11:12:34;;;;;;;18.87;9.40;;;;;;;42.95;30.70;101235.78;5058031;28;20418;-71
2022/08/26 11:15:01;;;;;;;23.37;11.07;;;;;;;43.28;30.72;101229.59;5046401;28;20848;-71
2022/08/26 11:17:45;;;;;;;18.67;10.10;;;;;;;43.28;30.16;101237.78;5045542;28;20506;-76
2022/08/26 11:20:30;;;;;;;22.27;11.07;;;;;;;43.09;30.66;101228.16;5046685;28;20429;-73
2022/08/26 11:23:22;;;;;;;18.43;9.90;;;;;;;43.63;29.81;101225.44;5052277;28;20442;-73
2022/08/26 11:26:00;;;;;;;30.17;11.73;;;;;;;43.82;30.18;101232.34;5050815;28;20459;-74
2022/08/26 11:28:44;;;;;;;21.23;9.90;;;;;;;44.08;29.20;101229.31;5052213;28;20406;-73
2022/08/26 11:31:19;;;;;;;19.63;10.50;;;;;;;43.98;29.59;101230.53;5048361;28;20481;-76
2022/08/26 11:34:07;;;;;;;37.17;12.23;;;;;;;43.89;28.86;101230.66;5051060;28;20429;-76
2022/08/26 11:36:55;;;;;;;23.13;9.90;;;;;;;43.50;29.53;101223.81;5050693;28;20800;-76